Time;durP1;ratioP1;P1;durP2;ratioP2;P2;SDS_P1;SDS_P2;PMS_P1;PMS_P2;Temp;Humidity;BMP_temperature;BMP_pressure;BME280_temperature;BME280_humidity;BME280_pressure;Samples;Min_cycle;Max_cycle;Signal;HPM_P1;HPM_P2
2023/10/23 00:00:45;;;;;;;2.38;0.63;;;24.40;58.50;;;;;;5030253;28;20201;-78
2023/10/23 00:03:16;;;;;;;1.08;0.40;;;24.50;57.10;;;;;;5005184;28;20249;-78
2023/10/23 00:05:46;;;;;;;1.80;0.55;;;24.50;57.10;;;;;;5007023;28;20225;-78
2023/10/23 00:08:17;;;;;;;5.03;0.60;;;24.60;55.50;;;;;;5018032;28;20304;-78
2023/10/23 00:10:49;;;;;;;1.90;0.63;;;24.60;54.50;;;;;;4994074;28;20272;-78
2023/10/23 00:13:19;;;;;;;3.33;0.70;;;24.50;54.00;;;;;;5014456;28;20223;-79
2023/10/23 00:15:52;;;;;;;3.35;0.60;;;24.50;54.60;;;;;;4992125;28;20683;-78
2023/10/23 00:18:23;;;;;;;3.88;0.70;;;24.50;54.50;;;;;;5004461;28;20198;-79
2023/10/23 00:20:53;;;;;;;2.45;0.50;;;24.60;54.50;;;;;;4996912;28;20628;-78
2023/10/23 00:23:24;;;;;;;2.83;0.63;;;24.70;54.00;;;;;;5008025;28;20572;-80
2023/10/23 00:25:55;;;;;;;0.73;0.32;;;24.70;53.90;;;;;;5011502;28;20721;-79
2023/10/23 00:28:26;;;;;;;1.40;0.50;;;24.80;53.30;;;;;;5014704;28;20256;-80
2023/10/23 00:30:59;;;;;;;1.77;0.60;;;24.90;52.00;;;;;;5011903;28;20238;-79
2023/10/23 00:33:30;;;;;;;1.02;0.40;;;24.90;52.40;;;;;;5011053;28;20233;-79
2023/10/23 00:36:01;;;;;;;1.45;0.73;;;25.00;51.60;;;;;;5011668;28;20241;-79
2023/10/23 00:38:32;;;;;;;3.25;0.40;;;25.10;51.90;;;;;;5010917;28;24749;-79
2023/10/23 00:41:02;;;;;;;1.08;0.50;;;25.20;51.00;;;;;;5011458;28;20212;-80
2023/10/23 00:43:34;;;;;;;2.08;0.50;;;25.20;50.10;;;;;;5011236;28;20357;-79
2023/10/23 00:46:13;;;;;;;1.30;0.43;;;25.20;50.00;;;;;;5003448;28;20297;-79
2023/10/23 00:48:44;;;;;;;0.52;0.40;;;25.20;50.10;;;;;;4999222;28;20205;-78
2023/10/23 00:51:16;;;;;;;1.92;0.50;;;25.30;49.90;;;;;;5032453;28;20197;-79
2023/10/23 00:53:48;;;;;;;1.42;0.60;;;25.50;49.00;;;;;;5044995;28;20226;-78
2023/10/23 00:56:19;;;;;;;1.77;0.43;;;25.50;49.30;;;;;;5013376;28;20230;-80
2023/10/23 00:58:50;;;;;;;1.02;0.50;;;25.60;48.20;;;;;;5011542;28;20310;-78
2023/10/23 01:01:23;;;;;;;3.75;0.90;;;25.50;48.00;;;;;;4992259;28;20202;-80
2023/10/23 01:03:53;;;;;;;1.33;0.60;;;25.60;47.90;;;;;;5006295;28;20201;-78
2023/10/23 01:06:24;;;;;;;1.60;0.80;;;25.80;47.60;;;;;;5010526;28;20205;-79
2023/10/23 01:08:55;;;;;;;2.20;0.60;;;25.70;46.50;;;;;;5023438;28;20698;-77
2023/10/23 01:11:26;;;;;;;2.08;0.60;;;25.70;47.90;;;;;;5022052;28;20219;-79
2023/10/23 01:13:57;;;;;;;1.15;0.55;;;25.90;47.40;;;;;;5022285;28;20226;-77
2023/10/23 01:16:29;;;;;;;1.75;0.57;;;25.90;46.80;;;;;;5010216;28;20216;-78
2023/10/23 01:19:00;;;;;;;1.35;0.63;;;26.00;47.70;;;;;;5011206;28;20590;-78
2023/10/23 01:21:31;;;;;;;4.20;1.10;;;26.10;47.10;;;;;;5006571;28;20690;-78
2023/10/23 01:24:03;;;;;;;2.00;0.73;;;26.20;45.80;;;;;;5010099;28;20680;-78
2023/10/23 01:26:36;;;;;;;1.67;0.80;;;26.20;45.40;;;;;;5007813;28;20228;-77
2023/10/23 01:29:07;;;;;;;4.03;0.80;;;26.30;45.20;;;;;;5010718;28;20585;-79
2023/10/23 01:31:37;;;;;;;2.13;0.90;;;26.40;45.20;;;;;;5012344;28;20634;-78
2023/10/23 01:34:08;;;;;;;4.40;0.52;;;26.10;45.10;;;;;;5008948;28;20308;-78
2023/10/23 01:36:39;;;;;;;0.93;0.60;;;26.20;45.90;;;;;;5010294;28;20569;-80
2023/10/23 01:39:10;;;;;;;1.83;0.73;;;26.20;45.40;;;;;;5012514;28;20317;-78
2023/10/23 01:41:42;;;;;;;2.60;0.50;;;26.40;45.60;;;;;;5009192;28;20197;-78
2023/10/23 01:44:13;;;;;;;2.63;0.60;;;26.70;46.20;;;;;;5012009;28;20193;-78
2023/10/23 01:46:44;;;;;;;1.73;0.60;;;26.80;45.40;;;;;;4996497;28;20194;-78
2023/10/23 01:49:15;;;;;;;2.08;0.70;;;26.90;45.60;;;;;;5012642;28;20242;-78
2023/10/23 01:51:46;;;;;;;3.05;0.70;;;26.90;44.80;;;;;;5013358;28;20284;-78
2023/10/23 01:54:17;;;;;;;2.45;0.70;;;26.90;44.20;;;;;;5011937;28;20281;-78
2023/10/23 01:56:49;;;;;;;1.88;0.65;;;26.90;44.40;;;;;;5018083;28;20182;-77
2023/10/23 01:59:20;;;;;;;1.60;0.70;;;26.80;43.40;;;;;;5008319;28;20203;-77
2023/10/23 02:01:51;;;;;;;1.15;0.57;;;26.80;43.60;;;;;;5010184;28;20647;-78
2023/10/23 02:04:22;;;;;;;4.28;0.70;;;26.90;44.90;;;;;;5010401;28;20197;-78
2023/10/23 02:06:52;;;;;;;3.08;0.77;;;26.90;43.90;;;;;;5010815;28;20224;-78
2023/10/23 02:09:23;;;;;;;4.10;0.70;;;27.00;44.60;;;;;;5009236;28;20678;-78
2023/10/23 02:11:56;;;;;;;1.48;0.50;;;27.10;42.80;;;;;;5010041;28;20202;-77
2023/10/23 02:14:30;;;;;;;1.00;0.52;;;27.20;42.50;;;;;;4997037;28;20222;-76
2023/10/23 02:17:00;;;;;;;3.15;0.63;;;27.30;44.50;;;;;;4990713;28;20202;-78
2023/10/23 02:19:33;;;;;;;3.78;0.90;;;27.50;49.60;;;;;;4999674;28;20201;-77
2023/10/23 02:22:03;;;;;;;3.03;0.93;;;27.40;52.60;;;;;;5010512;28;20786;-78
2023/10/23 02:24:34;;;;;;;4.40;0.82;;;27.40;53.90;;;;;;5011165;28;20252;-78
2023/10/23 02:27:07;;;;;;;3.03;0.90;;;27.40;54.30;;;;;;5006770;28;20218;-79
2023/10/23 02:29:40;;;;;;;3.17;0.60;;;27.50;54.40;;;;;;5009124;28;20569;-78
2023/10/23 02:32:11;;;;;;;2.42;0.73;;;27.30;53.50;;;;;;4991806;28;20234;-78
2023/10/23 02:34:44;;;;;;;2.55;0.85;;;27.30;53.90;;;;;;5002928;28;20769;-79
2023/10/23 02:37:15;;;;;;;4.13;1.10;;;27.50;54.10;;;;;;5010764;28;20295;-78
2023/10/23 02:39:46;;;;;;;3.85;0.88;;;27.70;55.00;;;;;;5013894;28;20559;-78
2023/10/23 02:42:20;;;;;;;1.90;0.68;;;27.80;54.20;;;;;;5007136;28;20211;-78
2023/10/23 02:44:51;;;;;;;3.28;0.93;;;27.90;53.70;;;;;;5001983;28;20198;-78
2023/10/23 02:47:21;;;;;;;3.20;0.85;;;28.00;53.70;;;;;;5016011;28;20208;-77
2023/10/23 02:49:54;;;;;;;2.10;1.02;;;27.90;53.80;;;;;;5015339;28;20569;-78
2023/10/23 02:55:10;;;;;;;4.57;1.02;;;27.70;54.10;;;;;;5021156;28;20230;-78
2023/10/23 02:57:43;;;;;;;5.78;0.90;;;27.60;54.20;;;;;;5019831;28;20284;-78
2023/10/23 03:00:15;;;;;;;4.60;0.80;;;27.80;53.60;;;;;;5022270;28;20250;-78
2023/10/23 03:02:46;;;;;;;1.55;0.65;;;27.80;53.30;;;;;;5003250;28;20223;-77
2023/10/23 03:05:17;;;;;;;5.03;1.00;;;28.10;53.90;;;;;;5008320;28;20687;-78
2023/10/23 03:07:48;;;;;;;3.90;1.00;;;28.10;52.90;;;;;;5022949;28;20204;-78
2023/10/23 03:10:18;;;;;;;2.20;0.85;;;28.10;50.20;;;;;;5016782;28;20198;-79
2023/10/23 03:12:51;;;;;;;3.70;0.80;;;28.30;52.30;;;;;;5002924;28;20206;-80
2023/10/23 03:15:23;;;;;;;4.20;0.95;;;28.50;52.70;;;;;;5015643;28;20226;-79
2023/10/23 03:17:54;;;;;;;4.60;1.00;;;28.70;52.50;;;;;;5017925;28;20200;-79
2023/10/23 03:20:25;;;;;;;3.15;0.88;;;28.50;52.30;;;;;;5014515;28;20198;-78
2023/10/23 03:22:56;;;;;;;4.10;1.00;;;28.60;53.60;;;;;;5010949;28;20198;-80
2023/10/23 03:25:26;;;;;;;4.55;0.80;;;28.60;54.20;;;;;;5010401;28;20199;-79
2023/10/23 03:28:00;;;;;;;4.32;1.10;;;28.40;54.60;;;;;;5007679;28;20289;-79
2023/10/23 03:30:30;;;;;;;2.50;0.80;;;28.40;55.50;;;;;;5013357;28;20205;-78
2023/10/23 03:33:01;;;;;;;1.17;0.80;;;28.50;55.90;;;;;;5014261;28;20298;-79
2023/10/23 03:35:39;;;;;;;4.45;1.10;;;28.50;55.50;;;;;;5006231;28;20222;-76
2023/10/23 03:38:15;;;;;;;1.65;0.80;;;28.40;55.70;;;;;;5010564;28;20197;-78
2023/10/23 03:40:55;;;;;;;5.57;1.02;;;28.60;55.30;;;;;;5003147;28;20202;-77
2023/10/23 03:43:28;;;;;;;4.60;1.20;;;28.70;54.20;;;;;;5015759;28;20564;-78
2023/10/23 03:46:03;;;;;;;2.95;1.20;;;28.30;54.70;;;;;;5013584;28;20285;-78
2023/10/23 03:48:37;;;;;;;4.05;0.82;;;28.30;55.20;;;;;;5012902;28;20200;-77
2023/10/23 03:51:08;;;;;;;2.97;0.90;;;28.40;55.30;;;;;;5014132;28;20205;-78
2023/10/23 03:53:39;;;;;;;2.80;1.00;;;28.20;54.70;;;;;;5017095;28;20202;-79
2023/10/23 03:56:11;;;;;;;2.42;1.00;;;28.10;55.20;;;;;;5012322;28;20204;-77
2023/10/23 03:58:45;;;;;;;3.78;1.17;;;28.30;53.90;;;;;;5015083;28;20206;-79
2023/10/23 04:01:16;;;;;;;3.22;1.00;;;28.10;53.80;;;;;;5012411;28;20200;-77
2023/10/23 04:03:46;;;;;;;2.20;0.90;;;28.10;50.80;;;;;;5019384;28;20201;-77
2023/10/23 04:06:17;;;;;;;3.17;0.75;;;27.90;51.10;;;;;;5013501;28;20242;-78
2023/10/23 04:08:54;;;;;;;2.25;0.70;;;27.80;51.20;;;;;;5001494;28;20195;-77
2023/10/23 04:11:25;;;;;;;1.92;0.80;;;27.90;52.40;;;;;;4996279;28;20186;-78
2023/10/23 04:13:57;;;;;;;5.32;0.90;;;28.00;54.50;;;;;;5010079;28;20225;-78
2023/10/23 04:16:28;;;;;;;2.42;0.73;;;28.00;56.20;;;;;;5012898;28;20272;-77
2023/10/23 04:18:59;;;;;;;4.00;0.90;;;27.90;57.20;;;;;;5012934;28;20216;-77
2023/10/23 04:21:30;;;;;;;4.43;0.93;;;27.90;57.70;;;;;;5012165;28;20214;-78
2023/10/23 04:24:00;;;;;;;6.50;1.10;;;27.80;57.90;;;;;;4993508;28;20209;-76
2023/10/23 04:26:31;;;;;;;2.10;0.80;;;27.70;58.40;;;;;;5006828;28;20265;-76
2023/10/23 04:29:04;;;;;;;4.47;1.10;;;27.60;59.30;;;;;;5004716;28;20213;-78
2023/10/23 04:31:35;;;;;;;5.65;1.00;;;27.70;59.50;;;;;;5005493;28;20715;-77
2023/10/23 04:34:05;;;;;;;2.03;0.82;;;28.00;57.90;;;;;;5012136;28;20226;-78
2023/10/23 04:36:36;;;;;;;2.60;0.82;;;28.00;59.00;;;;;;5013523;28;20640;-77
2023/10/23 04:39:13;;;;;;;2.92;0.80;;;28.00;57.70;;;;;;5012435;28;20212;-78
2023/10/23 04:41:44;;;;;;;2.85;0.88;;;28.00;57.90;;;;;;5011295;28;20197;-77
2023/10/23 04:44:16;;;;;;;2.97;0.98;;;28.00;57.70;;;;;;5014291;28;20194;-77
2023/10/23 04:46:48;;;;;;;4.22;0.90;;;28.00;58.30;;;;;;5012609;28;20234;-76
2023/10/23 04:49:18;;;;;;;3.08;0.70;;;28.10;58.40;;;;;;5010045;28;20640;-77
2023/10/23 04:51:49;;;;;;;1.33;0.65;;;28.20;57.70;;;;;;5005874;28;20210;-76
2023/10/23 04:54:20;;;;;;;3.08;0.80;;;28.30;56.90;;;;;;4995215;28;20222;-76
2023/10/23 04:56:51;;;;;;;2.80;0.75;;;28.30;57.30;;;;;;5009087;28;20690;-77
2023/10/23 04:59:24;;;;;;;2.10;0.93;;;28.60;56.80;;;;;;5012218;28;20193;-76
2023/10/23 05:01:54;;;;;;;4.05;1.05;;;28.30;56.80;;;;;;5009903;28;20200;-80
2023/10/23 05:04:25;;;;;;;2.35;0.73;;;28.50;56.30;;;;;;4996744;28;20218;-79
2023/10/23 05:06:57;;;;;;;2.65;0.80;;;28.50;56.00;;;;;;5003405;28;20232;-74
2023/10/23 05:09:38;;;;;;;3.05;0.80;;;28.50;55.60;;;;;;5037307;28;20252;-75
2023/10/23 05:12:09;;;;;;;4.90;0.70;;;28.50;54.60;;;;;;5014112;28;20197;-76
2023/10/23 05:14:44;;;;;;;2.60;0.52;;;28.50;53.60;;;;;;5010920;28;20225;-77
2023/10/23 05:17:15;;;;;;;3.60;0.70;;;28.60;53.50;;;;;;5014000;28;20243;-77
2023/10/23 05:19:49;;;;;;;1.80;0.63;;;28.50;53.70;;;;;;5012494;28;20200;-77
2023/10/23 05:22:20;;;;;;;2.50;0.60;;;28.50;53.50;;;;;;4997068;28;20295;-78
2023/10/23 05:24:51;;;;;;;7.55;0.90;;;28.60;54.10;;;;;;5015202;28;20216;-77
2023/10/23 05:27:22;;;;;;;2.38;0.90;;;28.80;54.10;;;;;;5012375;28;20201;-77
2023/10/23 05:29:55;;;;;;;2.25;0.60;;;29.00;54.80;;;;;;5011381;28;20322;-78
2023/10/23 05:32:25;;;;;;;3.13;0.80;;;29.10;54.70;;;;;;5007034;28;20410;-76
2023/10/23 05:34:56;;;;;;;2.55;0.80;;;29.00;55.10;;;;;;5007194;28;20602;-76
2023/10/23 05:37:27;;;;;;;1.70;0.68;;;29.00;55.00;;;;;;5013189;28;20712;-76
2023/10/23 05:39:58;;;;;;;2.97;0.77;;;28.60;54.60;;;;;;5016209;28;20667;-77
2023/10/23 05:42:30;;;;;;;5.25;0.80;;;28.60;54.10;;;;;;5016588;28;20569;-78
2023/10/23 05:45:04;;;;;;;3.08;0.88;;;29.00;52.40;;;;;;5023662;28;20632;-77
2023/10/23 05:47:35;;;;;;;2.20;0.60;;;28.90;51.00;;;;;;5010213;28;20194;-78
2023/10/23 05:50:06;;;;;;;2.70;0.65;;;28.90;51.10;;;;;;5009100;28;20194;-78
2023/10/23 05:52:37;;;;;;;3.92;0.50;;;29.00;49.80;;;;;;4992511;28;20202;-77
2023/10/23 05:55:08;;;;;;;5.10;0.55;;;29.10;50.70;;;;;;4997235;28;20579;-78
2023/10/23 05:57:39;;;;;;;1.23;0.60;;;29.10;51.50;;;;;;5010866;28;20643;-77
2023/10/23 06:00:13;;;;;;;2.80;0.52;;;29.30;51.00;;;;;;5010371;28;20576;-77
2023/10/23 06:02:43;;;;;;;2.45;0.82;;;29.50;51.00;;;;;;5010462;28;20206;-77
2023/10/23 06:05:14;;;;;;;2.83;0.55;;;29.30;51.40;;;;;;5008430;28;20190;-78
2023/10/23 06:07:45;;;;;;;1.38;0.50;;;29.10;51.90;;;;;;5019011;28;20235;-78
2023/10/23 06:10:16;;;;;;;1.58;0.45;;;29.00;53.00;;;;;;5016403;28;20198;-78
2023/10/23 06:12:47;;;;;;;2.15;0.60;;;29.00;52.60;;;;;;4993002;28;20233;-78
2023/10/23 06:15:20;;;;;;;2.30;0.60;;;28.80;52.40;;;;;;5006620;28;20229;-78
2023/10/23 06:17:52;;;;;;;3.53;0.60;;;28.80;52.90;;;;;;5003005;28;20222;-78
2023/10/23 06:20:23;;;;;;;1.45;0.55;;;28.90;51.90;;;;;;5009261;28;20194;-78
2023/10/23 06:22:53;;;;;;;3.75;0.70;;;28.90;54.60;;;;;;5013146;28;20190;-77
2023/10/23 06:25:24;;;;;;;2.05;0.60;;;28.80;56.20;;;;;;5013078;28;20202;-78
2023/10/23 06:27:55;;;;;;;1.83;0.50;;;29.10;55.80;;;;;;5013995;28;20204;-79
2023/10/23 06:30:31;;;;;;;2.15;0.60;;;29.50;55.00;;;;;;5005645;28;20204;-79
2023/10/23 06:33:02;;;;;;;1.63;0.70;;;29.60;55.10;;;;;;5002960;28;20484;-78
2023/10/23 06:35:33;;;;;;;2.60;0.70;;;29.70;53.50;;;;;;5011181;28;20225;-79
2023/10/23 06:38:04;;;;;;;2.13;0.57;;;30.10;51.50;;;;;;5013090;28;20194;-78
2023/10/23 06:40:35;;;;;;;1.60;0.57;;;29.90;51.50;;;;;;5014223;28;20288;-77
2023/10/23 06:43:06;;;;;;;2.10;0.57;;;29.80;53.90;;;;;;5003965;28;20201;-78
2023/10/23 06:45:40;;;;;;;3.35;0.70;;;29.90;54.00;;;;;;5004888;28;20673;-79
2023/10/23 06:48:11;;;;;;;3.28;0.80;;;30.00;53.80;;;;;;5004398;28;20202;-79
2023/10/23 06:50:49;;;;;;;1.65;0.68;;;29.80;54.40;;;;;;5013202;28;20938;-77
2023/10/23 06:53:19;;;;;;;3.28;0.50;;;29.90;54.60;;;;;;5014089;28;20202;-77
2023/10/23 06:55:54;;;;;;;4.00;0.80;;;29.50;54.00;;;;;;5011185;28;20233;-79
2023/10/23 06:58:25;;;;;;;2.55;0.80;;;29.50;55.00;;;;;;4997118;28;20205;-77
2023/10/23 07:00:58;;;;;;;2.05;0.73;;;29.50;53.70;;;;;;4995036;28;20194;-77
2023/10/23 07:03:28;;;;;;;1.75;0.60;;;29.00;55.90;;;;;;5011733;28;20218;-78
2023/10/23 07:05:59;;;;;;;1.83;0.57;;;29.00;56.70;;;;;;4994587;28;20297;-77
2023/10/23 07:08:30;;;;;;;3.58;0.57;;;29.10;57.20;;;;;;5008841;28;20206;-77
2023/10/23 07:11:01;;;;;;;1.70;0.52;;;29.20;57.70;;;;;;5008098;28;20207;-78
2023/10/23 07:13:32;;;;;;;2.65;0.73;;;29.30;58.20;;;;;;5035456;28;20254;-76
2023/10/23 07:16:09;;;;;;;2.10;0.60;;;29.40;58.80;;;;;;5012263;28;20233;-77
2023/10/23 07:18:40;;;;;;;9.73;1.08;;;29.30;58.90;;;;;;4999938;28;20304;-77
2023/10/23 07:21:10;;;;;;;1.88;0.60;;;29.00;59.40;;;;;;5015819;28;20875;-77
2023/10/23 07:23:41;;;;;;;2.33;0.70;;;28.80;59.60;;;;;;5013830;28;20281;-77
2023/10/23 07:26:14;;;;;;;2.10;0.73;;;28.70;60.40;;;;;;4994068;28;20202;-77
2023/10/23 07:28:45;;;;;;;3.80;0.75;;;28.30;61.60;;;;;;5007560;28;20681;-76
2023/10/23 07:31:18;;;;;;;1.52;0.63;;;27.90;63.30;;;;;;5007173;28;20262;-77
2023/10/23 07:33:50;;;;;;;2.40;0.70;;;27.50;64.60;;;;;;4996393;28;20213;-77
2023/10/23 07:36:21;;;;;;;5.93;1.02;;;27.00;65.80;;;;;;4994271;28;20229;-77
2023/10/23 07:38:51;;;;;;;2.80;0.80;;;26.60;67.20;;;;;;5010141;28;20281;-77
2023/10/23 07:41:22;;;;;;;2.25;0.70;;;26.10;70.10;;;;;;5011744;28;20194;-78
2023/10/23 07:43:53;;;;;;;2.00;0.68;;;25.90;72.20;;;;;;5013193;28;20213;-77
2023/10/23 07:46:26;;;;;;;2.80;0.70;;;25.60;74.80;;;;;;5012994;28;20202;-78
2023/10/23 07:48:57;;;;;;;3.55;0.70;;;25.50;77.40;;;;;;5012755;28;20668;-79
2023/10/23 07:51:28;;;;;;;3.15;0.75;;;25.20;79.20;;;;;;5010844;28;20574;-79
2023/10/23 07:54:00;;;;;;;2.85;0.90;;;25.10;81.80;;;;;;5012228;28;20289;-78
2023/10/23 07:56:31;;;;;;;2.88;0.70;;;24.90;84.00;;;;;;4994675;28;20244;-79
2023/10/23 07:59:02;;;;;;;3.67;0.80;;;24.80;86.40;;;;;;5007588;28;20662;-78
2023/10/23 08:01:35;;;;;;;1.42;0.43;;;24.70;88.00;;;;;;5013120;28;20198;-78
2023/10/23 08:04:05;;;;;;;3.22;0.93;;;24.60;89.50;;;;;;5002253;28;20194;-79
2023/10/23 08:06:36;;;;;;;7.32;1.00;;;24.50;90.30;;;;;;5008289;28;20720;-79
2023/10/23 08:09:08;;;;;;;3.22;1.08;;;24.20;92.00;;;;;;5002004;28;20199;-79
2023/10/23 08:11:39;;;;;;;5.55;1.20;;;24.10;93.30;;;;;;5005906;28;20240;-78
2023/10/23 08:14:09;;;;;;;2.80;0.60;;;24.10;94.10;;;;;;5012839;28;20205;-79
2023/10/23 08:16:42;;;;;;;3.60;0.75;;;24.00;94.70;;;;;;5027604;28;20312;-80
2023/10/23 08:19:13;;;;;;;7.20;1.10;;;23.90;95.50;;;;;;5011946;28;20655;-79
2023/10/23 08:21:44;;;;;;;3.78;1.20;;;23.80;96.20;;;;;;5012484;28;20205;-79
2023/10/23 08:24:15;;;;;;;6.47;3.45;;;23.70;97.00;;;;;;5012480;28;20675;-79
2023/10/23 08:26:46;;;;;;;3.63;1.80;;;23.60;97.90;;;;;;5012138;28;20209;-79
2023/10/23 08:29:17;;;;;;;2.97;1.00;;;23.40;99.20;;;;;;5009306;28;20202;-76
2023/10/23 08:31:50;;;;;;;3.92;0.95;;;23.40;99.90;;;;;;5012135;28;20280;-78
2023/10/23 08:34:21;;;;;;;2.60;0.93;;;23.40;99.90;;;;;;5012109;28;20194;-78
2023/10/23 08:36:52;;;;;;;3.10;0.75;;;23.40;99.90;;;;;;5011268;28;20229;-79
2023/10/23 08:39:24;;;;;;;5.10;0.88;;;23.50;99.90;;;;;;5009810;28;20201;-78
2023/10/23 08:41:55;;;;;;;2.60;0.85;;;23.50;99.90;;;;;;5011412;28;20666;-78
2023/10/23 08:44:26;;;;;;;2.47;0.90;;;23.50;99.90;;;;;;5007690;28;20197;-79
2023/10/23 08:46:59;;;;;;;2.47;0.88;;;23.40;99.90;;;;;;5007581;28;20206;-79
2023/10/23 08:49:30;;;;;;;3.33;1.02;;;23.30;99.90;;;;;;5011969;28;20198;-79
2023/10/23 08:52:03;;;;;;;2.13;0.90;;;23.30;99.90;;;;;;5011507;28;20206;-78
2023/10/23 08:54:33;;;;;;;3.30;0.90;;;23.40;99.90;;;;;;5010532;28;20204;-78
2023/10/23 08:57:04;;;;;;;3.10;1.08;;;23.30;99.90;;;;;;5010927;28;20235;-78
2023/10/23 08:59:35;;;;;;;4.78;1.00;;;23.20;99.90;;;;;;5011601;28;20653;-78
2023/10/23 09:02:09;;;;;;;4.53;1.08;;;23.20;99.90;;;;;;5010042;28;20281;-77
2023/10/23 09:04:40;;;;;;;3.42;0.90;;;23.20;99.90;;;;;;5011374;28;20198;-80
2023/10/23 09:07:10;;;;;;;6.57;1.13;;;23.20;99.90;;;;;;5014002;28;20289;-79
2023/10/23 09:09:41;;;;;;;4.68;1.15;;;23.10;99.90;;;;;;5022465;28;20200;-79
2023/10/23 09:12:30;;;;;;;3.58;1.00;;;23.00;99.90;;;;;;5009566;28;20266;-78
2023/10/23 09:15:14;;;;;;;2.80;0.90;;;23.10;99.90;;;;;;4996407;28;20198;-79
2023/10/23 09:17:47;;;;;;;2.83;1.00;;;23.10;99.90;;;;;;5007489;28;20202;-78
2023/10/23 09:20:26;;;;;;;2.95;0.65;;;23.00;99.90;;;;;;5022811;28;20297;-77
2023/10/23 09:22:58;;;;;;;6.10;1.05;;;23.00;99.90;;;;;;5008441;28;20206;-78
2023/10/23 09:25:29;;;;;;;2.35;0.70;;;23.00;99.90;;;;;;4991921;28;20253;-77
2023/10/23 09:28:00;;;;;;;3.80;0.90;;;23.00;99.90;;;;;;5009558;28;20205;-78
2023/10/23 09:30:30;;;;;;;3.83;0.85;;;23.00;99.90;;;;;;5011171;28;20209;-78
2023/10/23 09:33:03;;;;;;;2.85;0.80;;;22.90;99.90;;;;;;5010234;28;20204;-78
2023/10/23 09:35:35;;;;;;;3.70;1.00;;;23.00;99.90;;;;;;4998681;28;20240;-78
2023/10/23 09:38:15;;;;;;;3.05;1.00;;;22.90;99.90;;;;;;5010271;28;20196;-79
2023/10/23 09:40:49;;;;;;;3.08;0.80;;;22.90;99.90;;;;;;5010795;28;20193;-78
2023/10/23 09:43:21;;;;;;;2.17;0.75;;;22.80;99.90;;;;;;5010309;28;20225;-78
2023/10/23 09:45:54;;;;;;;5.75;1.10;;;22.80;99.90;;;;;;5011070;28;20738;-78
2023/10/23 09:48:27;;;;;;;4.00;0.73;;;22.80;99.90;;;;;;5008086;28;20313;-78
2023/10/23 09:51:01;;;;;;;4.63;1.00;;;22.70;99.90;;;;;;5011155;28;20201;-78
2023/10/23 09:53:33;;;;;;;4.38;0.70;;;22.80;99.90;;;;;;5008233;28;20664;-78
2023/10/23 09:56:07;;;;;;;4.70;0.90;;;22.70;99.90;;;;;;5009383;28;20230;-78
2023/10/23 09:58:40;;;;;;;3.65;1.02;;;22.70;99.90;;;;;;5030641;28;20200;-79
2023/10/23 10:01:12;;;;;;;3.83;0.80;;;22.70;99.90;;;;;;5020127;28;20208;-79
2023/10/23 10:03:48;;;;;;;3.15;0.63;;;22.70;99.90;;;;;;5009937;28;20206;-77
2023/10/23 10:06:21;;;;;;;4.82;1.17;;;22.60;99.90;;;;;;5010731;28;20194;-77
2023/10/23 10:08:55;;;;;;;3.63;0.90;;;22.60;99.90;;;;;;5010640;28;20204;-78
2023/10/23 10:11:27;;;;;;;5.60;0.90;;;22.60;99.90;;;;;;5004326;28;20200;-77
2023/10/23 10:13:59;;;;;;;5.80;1.10;;;22.60;99.90;;;;;;4990822;28;20191;-79
2023/10/23 10:16:30;;;;;;;2.58;0.70;;;22.60;99.90;;;;;;5009117;28;20721;-78
2023/10/23 10:19:04;;;;;;;4.53;1.00;;;22.60;99.90;;;;;;5010240;28;20646;-78
2023/10/23 10:21:43;;;;;;;4.30;0.95;;;22.50;99.90;;;;;;5010751;28;20213;-76
2023/10/23 10:24:14;;;;;;;3.60;0.90;;;22.60;99.90;;;;;;5015725;28;20223;-78
2023/10/23 10:26:45;;;;;;;3.45;0.70;;;22.60;99.90;;;;;;5009850;28;20549;-77
2023/10/23 10:29:17;;;;;;;4.80;0.93;;;22.60;99.90;;;;;;5006177;28;20269;-77
2023/10/23 10:32:09;;;;;;;6.78;0.95;;;22.60;99.90;;;;;;5005331;28;20233;-79
2023/10/23 10:34:53;;;;;;;5.13;1.20;;;22.50;99.90;;;;;;5010465;28;20212;-77
2023/10/23 10:37:26;;;;;;;3.47;0.88;;;22.50;99.90;;;;;;5014405;28;20233;-78
2023/10/23 10:40:10;;;;;;;2.92;1.05;;;22.50;99.90;;;;;;5007899;28;20197;-78
2023/10/23 10:42:42;;;;;;;4.18;1.00;;;22.50;99.90;;;;;;5016524;28;20208;-83
2023/10/23 10:45:17;;;;;;;3.53;0.93;;;22.50;99.90;;;;;;5016304;28;20667;-78
2023/10/23 10:47:52;;;;;;;4.25;1.13;;;22.60;99.90;;;;;;5010060;28;20205;-77
2023/10/23 10:53:45;;;;;;;4.85;1.10;;;22.40;99.90;;;;;;5002095;28;20202;-78
2023/10/23 10:56:16;;;;;;;3.75;0.95;;;22.50;99.90;;;;;;5009240;28;20244;-79
2023/10/23 10:58:47;;;;;;;3.10;0.90;;;22.40;99.90;;;;;;5009627;28;20198;-79
2023/10/23 11:01:23;;;;;;;4.40;1.00;;;22.40;99.90;;;;;;5011437;28;20328;-78
2023/10/23 11:04:07;;;;;;;4.32;1.05;;;22.40;99.90;;;;;;5019843;28;20615;-78
2023/10/23 11:07:08;;;;;;;3.35;1.00;;;22.40;99.90;;;;;;5013511;28;20257;-78
2023/10/23 11:10:12;;;;;;;4.78;1.10;;;22.40;99.90;;;;;;5019993;28;20229;-77
2023/10/23 11:16:08;;;;;;;2.33;0.90;;;22.40;99.90;;;;;;5024280;28;20625;-77
2023/10/23 11:22:47;;;;;;;5.30;1.10;;;22.30;99.90;;;;;;5000788;28;20260;-79
2023/10/23 11:25:19;;;;;;;4.47;1.15;;;22.30;99.90;;;;;;5021091;28;20262;-78
2023/10/23 11:28:13;;;;;;;2.58;0.85;;;22.30;99.90;;;;;;5021331;28;20719;-77
2023/10/23 11:31:03;;;;;;;4.47;1.17;;;22.20;99.90;;;;;;5015502;28;20285;-78
2023/10/23 11:33:35;;;;;;;3.25;1.00;;;22.20;99.90;;;;;;5013793;28;20202;-79
2023/10/23 11:36:32;;;;;;;5.30;1.00;;;22.20;99.90;;;;;;5014106;28;20194;-80
2023/10/23 11:39:25;;;;;;;4.30;0.93;;;22.20;99.90;;;;;;5005605;28;20588;-79
2023/10/23 11:45:41;;;;;;;3.50;1.05;;;22.20;99.90;;;;;;5021130;28;20198;-77
2023/10/23 11:48:35;;;;;;;4.03;0.90;;;22.10;99.90;;;;;;5013018;28;20693;-78
2023/10/23 11:51:42;;;;;;;2.40;0.85;;;22.10;99.90;;;;;;5021670;28;20764;-77
2023/10/23 11:54:15;;;;;;;2.75;0.90;;;22.10;99.90;;;;;;5002446;28;20205;-78
2023/10/23 12:06:59;;;;;;;2.25;0.80;;;22.00;99.90;;;;;;5016667;28;20766;-78
2023/10/23 12:17:10;;;;;;;3.65;0.88;;;22.00;99.90;;;;;;4266661;27;25501358;-78
2023/10/23 12:29:09;;;;;;;4.63;1.25;;;21.80;99.90;;;;;;4999547;26;20443;-78
2023/10/23 12:35:55;;;;;;;3.60;0.80;;;21.90;99.90;;;;;;5045187;28;20225;-78
2023/10/23 12:42:23;;;;;;;5.13;0.95;;;21.90;99.90;;;;;;5029473;28;20208;-77
2023/10/23 12:44:56;;;;;;;3.28;0.90;;;21.80;99.90;;;;;;5045129;28;20297;-78
2023/10/23 12:47:32;;;;;;;4.35;0.93;;;21.80;99.90;;;;;;5038060;28;20260;-76
2023/10/23 12:53:18;;;;;;;2.67;0.63;;;21.70;99.90;;;;;;5035456;28;20270;-78
2023/10/23 12:55:51;;;;;;;3.67;0.90;;;21.70;99.90;;;;;;5027241;28;20208;-77
2023/10/23 12:58:22;;;;;;;4.88;1.20;;;21.70;99.90;;;;;;5022622;28;20238;-78
2023/10/23 13:00:54;;;;;;;2.83;0.88;;;21.70;99.90;;;;;;5019057;28;20205;-77
2023/10/23 13:03:25;;;;;;;7.05;1.30;;;21.70;99.90;;;;;;5028515;28;20206;-76
2023/10/23 13:05:59;;;;;;;4.90;0.93;;;21.70;99.90;;;;;;5034311;28;20220;-78
2023/10/23 13:12:04;;;;;;;2.60;0.90;;;21.70;99.90;;;;;;5041324;28;20207;-76
2023/10/23 13:14:36;;;;;;;2.17;0.70;;;21.70;99.90;;;;;;5036290;28;20224;-77
2023/10/23 13:17:38;;;;;;;2.55;0.90;;;21.60;99.90;;;;;;5052648;28;20609;-78
2023/10/23 13:23:27;;;;;;;3.83;1.00;;;21.60;99.90;;;;;;5041568;28;20193;-78
2023/10/23 13:29:09;;;;;;;5.32;1.30;;;21.50;99.90;;;;;;5014841;28;20223;-77
2023/10/23 13:32:12;;;;;;;5.72;1.30;;;21.50;99.90;;;;;;5022242;28;20197;-78
2023/10/23 13:38:01;;;;;;;2.08;0.70;;;21.50;99.90;;;;;;5007397;28;20197;-77
2023/10/23 13:40:33;;;;;;;4.00;1.00;;;21.50;99.90;;;;;;5007156;28;20201;-77
2023/10/23 13:43:49;;;;;;;3.25;1.17;;;21.50;99.90;;;;;;5007289;28;20251;-77
2023/10/23 13:46:41;;;;;;;5.05;1.02;;;21.40;99.90;;;;;;5016973;28;20632;-77
2023/10/23 13:49:12;;;;;;;5.90;1.00;;;21.40;99.90;;;;;;5009675;28;20744;-79
2023/10/23 13:52:05;;;;;;;6.25;1.33;;;21.40;99.90;;;;;;5003694;28;20213;-77
2023/10/23 13:55:00;;;;;;;2.92;0.90;;;21.40;99.90;;;;;;5013591;28;20268;-78
2023/10/23 13:57:31;;;;;;;2.90;1.10;;;21.30;99.90;;;;;;5018968;28;20233;-77
2023/10/23 14:00:44;;;;;;;5.80;1.20;;;21.30;99.90;;;;;;5029374;28;20225;-77
2023/10/23 14:04:10;;;;;;;4.45;0.80;;;21.30;99.90;;;;;;5026558;28;20221;-79
2023/10/23 14:07:22;;;;;;;3.78;1.15;;;21.30;99.90;;;;;;5019340;28;20194;-78
2023/10/23 14:10:20;;;;;;;3.60;0.95;;;21.20;99.90;;;;;;4992920;28;20204;-79
2023/10/23 14:13:04;;;;;;;4.38;0.90;;;21.20;99.90;;;;;;5025603;28;20258;-77
2023/10/23 14:15:51;;;;;;;2.33;0.85;;;21.20;99.90;;;;;;5028371;28;20273;-77
2023/10/23 14:18:37;;;;;;;5.05;1.13;;;21.20;99.90;;;;;;5024085;28;20186;-77
2023/10/23 14:21:25;;;;;;;3.00;0.90;;;21.10;99.90;;;;;;5022449;28;20221;-77
2023/10/23 14:30:46;;;;;;;4.82;1.15;;;21.10;99.90;;;;;;5023948;28;20249;-76
2023/10/23 14:33:37;;;;;;;4.88;1.10;;;21.00;99.90;;;;;;5018733;28;20203;-77
2023/10/23 14:45:30;;;;;;;3.63;1.15;;;20.70;99.90;;;;;;4972935;28;20209;-77